Terminal Aerodrome Forecast
Issued by NWS

Home | Current Version | Previous Version | Text Only | Print | Product List | Glossary Off
Versions: 1 2 3 4 5 6 7 8 9 10 11 12

000
FTUS43 KICT 311120
TAFRSL
TAF
KRSL 311120Z 3112/0112 18006KT 6SM BR SKC
      TEMPO 3112/3114 3SM BR
     FM311400 18006KT P6SM SCT060=

USA.gov is the U.S. government's official web portal to all federal, state and local government web resources and services.